Streetman, Texas
Current Conditions -  °F | °C
As of 5:53 PM on Sunday 21 Dec 2014 (Local Time) from KCRS Reporting Station
Overcast Overcast  
Wind Chill: 53°   Ceiling: 1700
Heat Index: 53°   Visibility: 10mi
Dew Point: 46°   Wind: 9mph
Humidity: 77%   Direction: 170°S
Pressure: 29.9"   Gusts: NA
Location:  31.88°N, 96.32°W
Report Text: KCRS 212353Z AUTO 17008KT 10SM OVC017 12/08 A2990 RMK AO2 SLP125 T01170078 10117 20100 55014
Loading
Personal Weather Stations






























Interactive Weather Map New forecast layout! Learn more

10-Day Weather Forecast

Advertisements
Track Severe Weather on mobile